Flight Track Log - Related Links

Times and Time Zones

All times are in EDT time to prevent confusion due to time zone crossing. See the ACA230 flight status page for this flight to view local times or setup timezone preferences in your user account.

Time Position Orientation Groundspeed Altitude Reporting Facility
EDT Latitude Longitude Course Direction KTS MPH feet Rate Location/Type
Thu 01:30:14 AM 49.1667 -123.1333 98° East 140 161 1,700  Level Vancouver Center
Thu 01:31:14 AM 49.1500 -123.0333 104° East 200 230 3,800 2,300 Climbing Vancouver Center
Thu 01:32:00 AM 49.1074 -122.5185 53° Northeast  Level FlightAware Approximate
Thu 01:32:14 AM 49.1333 -122.9333 104° East 260 299 6,300  Level Vancouver Center
Thu 01:33:00 AM 49.1000 -122.3213 90° East  Level FlightAware Approximate
Thu 01:33:14 AM 49.1333 -122.8000 90° East 280 322 9,800  Level Vancouver Center
Thu 01:34:00 AM 49.1423 -122.1748 98° East  Level Estimated
Thu 01:34:14 AM 49.1167 -122.6833 102° East 310 357 11,300  Level Vancouver Center
Thu 01:35:14 AM 49.1000 -122.5167 99° East 360 414 14,000 2,550 Climbing Vancouver Center
Thu 01:36:14 AM 49.1167 -122.3667 80° East 380 437 16,400 2,500 Climbing Vancouver Center
Thu 01:37:14 AM 49.1333 -122.2167 80° East 400 460 19,000 2,700 Climbing Vancouver Center
Thu 01:38:14 AM 49.1333 -122.0333 90° East 390 449 21,800 2,100 Climbing Vancouver Center
Thu 01:39:14 AM 49.1667 -121.8833 71° East 390 449 23,200 1,400 Climbing Vancouver Center
Thu 01:40:14 AM 49.2167 -121.7000 67° East 430 495 24,600 1,450 Climbing Vancouver Center
Thu 01:41:14 AM 49.2500 -121.5167 74° East 440 506 26,100 1,500 Climbing Vancouver Center
Thu 01:42:14 AM 49.3000 -121.3500 65° Northeast 450 518 27,600 1,350 Climbing Vancouver Center
Thu 01:43:14 AM 49.3333 -121.1667 74° East 460 529 28,800 1,400 Climbing Vancouver Center
Thu 01:44:14 AM 49.3833 -120.9500 70° East 470 541 30,400 1,500 Climbing Vancouver Center
Thu 01:45:14 AM 49.4333 -120.7667 67° East 470 541 31,800 1,450 Climbing Vancouver Center
Thu 01:46:14 AM 49.4667 -120.6167 71° East 460 529 33,300 1,500 Climbing Vancouver Center
Thu 01:47:14 AM 49.5000 -120.4000 77° East 450 518 34,800 1,150 Climbing Vancouver Center
Thu 01:48:14 AM 49.5500 -120.2167 67° East 450 518 35,600 800 Climbing Vancouver Center
Thu 01:49:14 AM 49.6000 -120.0333 67° East 450 518 36,400 700 Climbing Vancouver Center
Thu 01:50:14 AM 49.6333 -119.8500 74° East 450 518 37,000 87 Climbing Vancouver Center
Thu 01:56:08 AM 49.8500 -118.8000 72° East 460 529 37,000  Level Edmonton Center
Thu 01:57:08 AM 49.8833 -118.6167 74° East 460 529 37,000  Level Edmonton Center
Thu 01:58:08 AM 49.9333 -118.4167 69° East 460 529 37,000  Level Edmonton Center
Thu 01:59:00 AM 49.9349 -118.5095 72° East  Level FlightAware Approximate
Thu 01:59:08 AM 49.9667 -118.2500 73° East 460 529 37,000  Level Edmonton Center
Thu 02:00:00 AM 49.9665 -118.3545 72° East  Level FlightAware Approximate
Thu 02:00:08 AM 50.0000 -118.0500 75° East 450 518 37,000  Level Edmonton Center
Thu 02:01:00 AM 49.9979 -118.1993 72° East  Level FlightAware Approximate
Thu 02:01:08 AM 50.0333 -117.8667 74° East 450 518 37,000  Level Edmonton Center
Thu 02:02:08 AM 50.0667 -117.6667 75° East 450 518 37,000  Level Edmonton Center
Thu 02:03:08 AM 50.1167 -117.4667 69° East 460 529 37,000  Level Edmonton Center
Thu 02:04:08 AM 50.1500 -117.2833 74° East 460 529 37,000  Level Edmonton Center
Thu 02:05:08 AM 50.2000 -117.0833 69° East 460 529 37,000  Level Edmonton Center
Thu 02:06:08 AM 50.2333 -116.9167 73° East 460 529 37,000  Level Edmonton Center
Thu 02:07:08 AM 50.2667 -116.7167 75° East 460 529 37,000  Level Edmonton Center
Thu 02:08:08 AM 50.2833 -116.5333 82° East 460 529 37,000 -50 Level Edmonton Center
Thu 02:09:08 AM 50.3333 -116.3333 69° East 460 529 36,900 -1,250 Descending Edmonton Center
Thu 02:10:08 AM 50.3667 -116.1167 76° East 460 529 34,500 -2,350 Descending Edmonton Center
Thu 02:11:08 AM 50.4000 -115.9500 73° East 460 529 32,200 -2,400 Descending Edmonton Center
Thu 02:12:08 AM 50.4500 -115.7500 68° East 450 518 29,700 -2,400 Descending Edmonton Center
Thu 02:13:08 AM 50.4833 -115.5667 74° East 440 506 27,400 -2,300 Descending Edmonton Center
Thu 02:14:08 AM 50.5167 -115.3833 74° East 420 483 25,100 -2,150 Descending Edmonton Center
Thu 02:15:08 AM 50.5500 -115.2333 71° East 410 472 23,100 -2,100 Descending Edmonton Center
Thu 02:16:08 AM 50.5833 -115.0500 74° East 390 449 20,900 -2,050 Descending Edmonton Center
Thu 02:17:08 AM 50.6333 -114.9000 62° Northeast 370 426 19,000 -1,950 Descending Edmonton Center
Thu 02:18:08 AM 50.6667 -114.7500 71° East 360 414 17,000 -1,800 Descending Edmonton Center
Thu 02:19:08 AM 50.7000 -114.6167 68° East 330 380 15,400 -1,350 Descending Edmonton Center
Thu 02:20:08 AM 50.7500 -114.5333 47° Northeast 310 357 14,300 -1,150 Descending Edmonton Center
Thu 02:21:08 AM 50.8167 -114.4333 43° Northeast 300 345 13,100 -1,300 Descending Edmonton Center
Thu 02:22:08 AM 50.8667 -114.3167 56° Northeast 300 345 11,700 -1,500 Descending Edmonton Center
Thu 02:23:08 AM 50.8667 -114.1833 90° East 290 334 10,100 -1,600 Descending Edmonton Center
Thu 02:24:08 AM 50.9000 -114.0833 62° Northeast 280 322 8,500 -1,700 Descending Edmonton Center
Thu 02:25:08 AM 50.9000 -113.9500 90° East 280 322 6,700 -1,100 Descending Edmonton Center
Thu 02:26:08 AM 50.9333 -113.8333 66° East 240 276 6,300 -350 Descending Edmonton Center
Thu 02:27:08 AM 50.9833 -113.8000 23° Northeast 210 242 6,000 -200 Descending Edmonton Center
Thu 02:28:08 AM 51.0167 -113.8500 317° Northwest 180 207 5,900 -400 Descending Edmonton Center
Thu 02:29:08 AM 51.0500 -113.9167 309° West 170 196 5,200 -800 Descending Edmonton Center
Thu 02:30:08 AM 51.0667 -113.9833 292° West 150 173 4,300 -850 Descending Edmonton Center
Thu 02:31:08 AM 51.0833 -114.0333 298° West 140 161 3,500 -400 Descending Edmonton Center
Thu 02:32:08 AM 51.1000 -114.0667 309° West 20 23 3,500  Level Edmonton Center

Login

Don't have an account? Register now (free) for customized features, flight alerts, and more!